METAR Data
IDs: Format: Raw Decoded Include TAF

Data at: 1044 UTC 26 Sep 2018

KPNT 261035Z AUTO 29005KT 10SM CLR 11/10 A3011 RMK AO2 T01070104
KPNT 261015Z AUTO 30005KT 10SM CLR 11/11 A3010 RMK AO2 T01130105
KPNT 260955Z AUTO 31007KT 10SM CLR 12/11 A3008 RMK AO2 T01170106
KPNT 260935Z AUTO 31006KT 10SM SCT026 12/11 A3007 RMK AO2 T01220105
KPNT 260915Z AUTO 32009KT 10SM SCT019 SCT026 13/10 A3006 RMK AO2 T01280100
KPNT 260855Z AUTO 31008KT 10SM OVC019 14/13 A3005 RMK AO2 T01370126
KPNT 260835Z AUTO 32007KT 10SM BKN022 OVC027 14/12 A3005 RMK AO2 T01370122
KPNT 260815Z AUTO 33009KT 10SM OVC024 14/12 A3004 RMK AO2 T01390121
KPNT 260755Z AUTO 32010G16KT 10SM SCT014 OVC024 14/13 A3004 RMK AO2 T01410125
KPNT 260735Z AUTO 32014G19KT 10SM BKN016 OVC024 15/14 A3003 RMK AO2 T01450135
KPNT 260715Z AUTO 30013KT 10SM OVC016 15/14 A3002 RMK AO2 T01470144
KPNT 260655Z AUTO 30013G19KT 10SM BKN014 OVC021 15/15 A3001 RMK AO2 T01500147
KPNT 260635Z AUTO 29013KT 10SM OVC014 16/15 A3001 RMK AO2 T01550151
KPNT 260615Z AUTO 31011G14KT 10SM BKN012 OVC019 16/16 A3000 RMK AO2 T01600156
KPNT 260555Z AUTO 30009G15KT 10SM OVC021 16/16 A2999 RMK AO2 60003 T01600158 10208 20160 403010160
KPNT 260535Z AUTO 31013G18KT 10SM OVC019 16/16 A2998 RMK AO2 T01630160
KPNT 260515Z AUTO 30012G18KT 10SM BKN012 OVC019 17/16 A2998 RMK AO2 T01670162
KPNT 260455Z AUTO 30016G19KT 10SM OVC010 17/17 A2998 RMK AO2 T01700167
KPNT 260435Z AUTO 30015G21KT 10SM BKN010 OVC015 18/17 A2997 RMK AO2 T01760173
KPNT 260415Z AUTO 31008KT 10SM BKN014 BKN019 BKN100 18/18 A2996 RMK AO2 T01770175
KPNT 260355Z AUTO 31007KT 10SM SCT110 18/17 A2996 RMK AO2 T01770174
KPNT 260335Z AUTO 31009KT 10SM CLR 18/18 A2995 RMK AO2 T01800176
KPNT 260315Z AUTO 30011G16KT 10SM SCT014 SCT021 19/18 A2994 RMK AO2 T01850181
KPNT 260255Z AUTO 30011G16KT 10SM SCT014 BKN021 19/19 A2993 RMK AO2 60003 T01940190
KPNT 260235Z AUTO 29012G21KT 10SM BKN014 OVC021 20/20 A2992 RMK AO2 T02000197
KPNT 260215Z AUTO 27007KT 10SM BKN014 BKN019 BKN075 20/20 A2990 RMK AO2 T02000198
KPNT 260155Z AUTO 26008KT 10SM SCT016 BKN070 BKN080 20/20 A2989 RMK AO2 LTG DSNT S T02010198
KPNT 260135Z AUTO 26008KT 10SM BKN070 OVC090 20/20 A2989 RMK AO2 T02020200
KPNT 260115Z AUTO 28013KT 10SM RA SCT090 SCT110 21/20 A2987 RMK AO2 T02070201
KPNT 260055Z AUTO 26008KT 10SM SCT090 20/20 A2987 RMK AO2 LTG DSNT E P0003 T02020200
KPNT 260035Z AUTO 26005KT 10SM SCT041 BKN075 OVC090 20/20 A2985 RMK AO2 LTG DSNT SW P0003 T02010198
KPNT 260015Z AUTO 26009KT 7SM +RA SCT047 BKN055 OVC100 20/19 A2986 RMK AO2 LTG DSNT E AND SE P0003 T01950192
KPNT 252355Z AUTO 28004KT 10SM SCT075 BKN100 OVC120 19/19 A2985 RMK AO2 LTG DSNT SW P0004 60004 T01930190 10301 20193
KPNT 252335Z AUTO 27007KT 7SM RA SCT043 BKN090 OVC110 20/19 A2986 RMK AO2 P0003 T01950192
KPNT 252315Z AUTO 28011G19KT 7SM RA SCT050 BKN080 OVC100 21/20 A2987 RMK AO2 LTG DSNT NE THRU S P0002 T02050198
KPNT 252255Z AUTO 30020G29KT 10SM BKN050 OVC085 23/17 A2987 RMK AO2 LTG DSNT N T02300173
KPNT 252235Z AUTO 23012KT 10SM SCT050 BKN095 29/19 A2982 RMK AO2 LTG DSNT N T02860185
KPNT 252215Z AUTO 24010G16KT 10SM SCT100 29/18 A2980 RMK AO2 LTG DSNT W AND NW T02910182
KPNT 252155Z AUTO 24012G18KT 10SM CLR 29/18 A2980 RMK AO2 T02940184
KPNT 252135Z AUTO 22012G17KT 10SM SCT050 SCT090 30/18 A2980 RMK AO2 T02970184
KPNT 252110Z AUTO 21015G20KT 10SM BKN060 BKN070 BKN090 30/17 A2980 RMK AO2 T02990174
KPNT 252055Z AUTO 23012KT 10SM SCT065 SCT070 BKN090 29/17 A2981 RMK AO2 T02900173
KPNT 252035Z AUTO 22013KT 10SM SCT055 OVC090 29/17 A2982 RMK AO2 T02900172
KPNT 252015Z AUTO 23014G20KT 10SM BKN055 BKN070 BKN090 29/17 A2982 RMK AO2 T02930171
KPNT 251955Z AUTO 23011G19KT 10SM SCT055 BKN070 30/17 A2982 RMK AO2 LTG DSNT SE AND NW T02980169
KPNT 251935Z AUTO 21014G21KT 10SM SCT055 SCT070 30/17 A2983 RMK AO2 T02950172
KPNT 251915Z AUTO 22009G21KT 10SM SCT055 SCT080 29/17 A2985 RMK AO2 T02890171
KPNT 251855Z AUTO 23013G17KT 10SM SCT050 SCT060 SCT080 29/17 A2986 RMK AO2 T02900168
KPNT 251835Z AUTO 24011G14KT 10SM SCT046 SCT060 SCT085 29/17 A2987 RMK AO2 T02900172
KPNT 251815Z AUTO 20009KT 10SM SCT044 SCT060 29/17 A2988 RMK AO2 T02870174
KPNT 251755Z AUTO 20012KT 10SM SCT040 BKN047 28/19 A2988 RMK AO2 T02800186 10282 20202
KPNT 251735Z AUTO 20013KT 10SM BKN037 BKN042 BKN047 27/19 A2989 RMK AO2 LTG DSNT S T02710190
KPNT 251715Z AUTO 20009G15KT 10SM SCT028 BKN035 BKN041 27/19 A2990 RMK AO2 LTG DSNT E AND S T02690191
KPNT 251655Z AUTO 17011G15KT 10SM SCT028 SCT033 SCT040 27/20 A2990 RMK AO2 T02670203
KPNT 251635Z AUTO 19009KT 10SM SCT026 SCT040 26/20 A2991 RMK AO2 T02590203
KPNT 251615Z AUTO 19007KT 10SM SCT014 SCT026 SCT047 26/21 A2991 RMK AO2 T02550211
KPNT 251555Z AUTO 20008KT 10SM SCT014 SCT028 SCT080 24/22 A2992 RMK AO2 LTG DSNT SE T02430222
KPNT 251535Z AUTO 18009KT 10SM SCT014 SCT028 SCT043 24/22 A2993 RMK AO2 LTG DSNT E AND SE T02430221
KPNT 251515Z AUTO 19007KT 10SM SCT012 SCT024 BKN043 24/22 A2993 RMK AO2 LTG DSNT S T02350223
KPNT 251455Z AUTO 19006KT 10SM BKN010 BKN015 OVC022 24/23 A2993 RMK AO2 LTG DSNT SE T02400232
KPNT 251435Z AUTO 22003KT 10SM BKN010 BKN015 BKN020 23/23 A2994 RMK AO2 LTG DSNT SE T02310228
KPNT 251415Z AUTO 23003KT 7SM SCT008 SCT013 BKN041 23/23 A2994 RMK AO2 LTG DSNT SE AND S T02270225
KPNT 251355Z AUTO 24005KT 7SM SCT006 BKN043 OVC050 22/22 A2994 RMK AO2 T02210218
KPNT 251335Z AUTO 25005KT 4SM BR SCT039 OVC050 22/22 A2994 RMK AO2 LTG DSNT E AND SE T02190216
KPNT 251315Z AUTO 22004KT 3SM BR SCT004 BKN040 OVC050 21/21 A2995 RMK AO2 LTG DSNT S T02140211
KPNT 251255Z AUTO 22004KT 3SM BR SCT009 SCT030 OVC050 21/21 A2994 RMK AO2 LTG DSNT S T02120210
KPNT 251235Z AUTO 22004KT 2 1/2SM BR SCT007 SCT011 BKN050 21/21 A2993 RMK AO2 LTG DSNT S T02100206
KPNT 251215Z AUTO 20003KT 1 1/2SM BR SCT005 BKN033 BKN046 20/20 A2993 RMK AO2 LTG DSNT S T02020200
KPNT 251155Z AUTO 22003KT 2 1/2SM BR BKN005 BKN031 OVC038 21/20 A2992 RMK AO2 LTG DSNT E AND S 60003 70003 T02050202 10208 20197
KPNT 251135Z AUTO 00000KT 4SM BR SCT007 BKN037 OVC049 21/20 A2993 RMK AO2 LTG DSNT S T02050202
KPNT 251115Z AUTO 22003KT 5SM BR SCT006 BKN037 OVC050 21/20 A2993 RMK AO2 LTG DSNT S T02060204
KPNT 251055Z AUTO 22004KT 5SM BR OVC006 21/21 A2993 RMK AO2 LTG DSNT E AND SE T02080205
KPNT 251035Z AUTO 21004KT 7SM BKN006 BKN024 OVC036 21/20 A2992 RMK AO2 LTG DSNT E AND SE T02060203
KPNT 251015Z AUTO 21004KT 7SM OVC006 21/21 A2992 RMK AO2 LTG DSNT NE AND SE T02080205
KPNT 250955Z AUTO 22004KT 10SM BKN008 BKN018 OVC035 21/21 A2992 RMK AO2 LTG DSNT NE THRU S P0001 T02070205
KPNT 250935Z AUTO 23005KT 7SM BKN006 BKN023 OVC028 21/20 A2992 RMK AO2 LTG DSNT E THRU S P0001 T02070204
KPNT 250915Z AUTO 22004KT 7SM BKN006 BKN024 OVC030 21/20 A2992 RMK AO2 LTG DSNT E THRU S T02050202
KPNT 250855Z AUTO 20003KT 7SM SCT004 BKN014 OVC047 20/20 A2991 RMK AO2 LTG DSNT E AND S 60002 T02040201
KPNT 250835Z AUTO 00000KT 5SM -VCTSRA BKN006 BKN011 OVC016 20/20 A2991 RMK AO2 LTG DSNT E T02030200
KPNT 250815Z AUTO 20003KT 7SM -VCTSRA BKN006 BKN036 OVC047 20/20 A2990 RMK AO2 LTG DSNT E T02030200
KPNT 250755Z AUTO 21003KT 5SM RA BKN008 OVC011 21/20 A2991 RMK AO2 LTG DSNT E P0002 T02050201
KPNT 250735Z AUTO 19003KT 5SM RA BKN010 BKN016 OVC023 21/20 A2991 RMK AO2 LTG DSNT E AND SE T02050201
KPNT 250715Z AUTO 00000KT 10SM VCTS SCT010 BKN022 OVC032 20/20 A2992 RMK AO2 LTG DSNT E AND SE T02000196
KPNT 250655Z AUTO 16003KT 10SM BKN032 BKN038 20/20 A2991 RMK AO2 LTG DSNT SE T01980195
KPNT 250635Z AUTO 17005KT 10SM VCTS BKN032 BKN038 20/20 A2991 RMK AO2 LTG DSNT SE T02020200
KPNT 250615Z AUTO 16006KT 10SM SCT042 SCT080 20/20 A2991 RMK AO2 LTG DSNT SE AND S T02010198
KPNT 250555Z AUTO 17006KT 10SM SCT042 OVC080 21/20 A2991 RMK AO2 LTG DSNT SE T02060203 10231 20204 402390122
KPNT 250535Z AUTO 16004KT 10SM SCT044 OVC070 21/20 A2993 RMK AO2 LTG DSNT S T02050202
KPNT 250515Z AUTO 16004KT 10SM SCT046 BKN070 21/20 A2993 RMK AO2 T02050202
KPNT 250455Z AUTO 16003KT 10SM OVC046 21/20 A2993 RMK AO2 T02050202
KPNT 250435Z AUTO 13003KT 10SM OVC048 21/20 A2993 RMK AO2 LTG DSNT S T02050202
KPNT 250415Z AUTO 15004KT 10SM SCT044 BKN050 BKN095 21/20 A2993 RMK AO2 T02050202
KPNT 250355Z AUTO 15005KT 10SM SCT050 BKN060 BKN095 21/21 A2994 RMK AO2 T02080205
KPNT 250335Z AUTO 15006KT 10SM OVC060 21/21 A2994 RMK AO2 T02130210
KPNT 250315Z AUTO 15004KT 10SM OVC050 22/21 A2994 RMK AO2 T02150212
KPNT 250255Z AUTO 15006KT 10SM OVC049 22/21 A2994 RMK AO2 T02160213
KPNT 250235Z AUTO 13008KT 10SM OVC047 22/21 A2993 RMK AO2 T02170211
KPNT 250215Z AUTO 14006KT 10SM OVC045 22/21 A2994 RMK AO2 T02190211
KPNT 250155Z AUTO 15006KT 10SM OVC041 22/21 A2994 RMK AO2 T02200211
KPNT 250135Z AUTO 15008KT 10SM BKN039 OVC047 22/21 A2993 RMK AO2 T02210211
KPNT 250115Z AUTO 16007KT 10SM BKN041 OVC047 22/21 A2993 RMK AO2 T02230211
KPNT 250055Z AUTO 15005KT 10SM OVC044 23/21 A2993 RMK AO2 T02250210
KPNT 250035Z AUTO 15005KT 10SM OVC042 23/21 A2992 RMK AO2 T02270210
KPNT 250015Z AUTO 15004KT 10SM SCT028 SCT034 OVC040 23/21 A2992 RMK AO2 T02280207
KPNT 242355Z AUTO 15005KT 10SM BKN028 OVC036 23/21 A2992 RMK AO2 T02300206 10239 20200
KPNT 242335Z AUTO 15006KT 10SM BKN026 BKN036 OVC041 24/21 A2992 RMK AO2 T02350206
KPNT 242315Z AUTO 13004KT 10SM OVC028 24/21 A2991 RMK AO2 T02370206
KPNT 242255Z AUTO 12003KT 10SM BKN027 OVC032 24/21 A2991 RMK AO2 T02360206